Time;durP1;ratioP1;P1;durP2;ratioP2;P2;SDS_P1;SDS_P2;PMS_P1;PMS_P2;Temp;Humidity;BMP_temperature;BMP_pressure;BME280_temperature;BME280_humidity;BME280_pressure;Samples;Min_cycle;Max_cycle;Signal;HPM_P1;HPM_P2
2022/08/25 00:01:44;;;;;;;1.83;1.10;;;;;;;29.33;39.42;99065.66;5087655;28;20056;-63
2022/08/25 00:04:12;;;;;;;2.72;1.00;;;;;;;29.34;39.19;99066.44;5088296;28;20070;-63
2022/08/25 00:06:38;;;;;;;1.85;1.00;;;;;;;29.33;39.46;99071.28;5090024;28;20086;-53
2022/08/25 00:09:04;;;;;;;2.22;1.30;;;;;;;29.33;39.04;99073.31;5089937;28;20036;-52
2022/08/25 00:11:32;;;;;;;2.53;1.20;;;;;;;29.32;39.29;99074.53;5090011;28;20083;-63
2022/08/25 00:14:01;;;;;;;1.77;1.13;;;;;;;29.33;39.19;99071.28;5089980;28;20054;-51
2022/08/25 00:16:27;;;;;;;1.60;1.00;;;;;;;29.33;39.18;99079.72;5089843;28;20062;-52
2022/08/25 00:18:57;;;;;;;1.95;1.10;;;;;;;29.33;39.28;99076.13;5089660;28;20048;-52
2022/08/25 00:21:23;;;;;;;1.98;1.13;;;;;;;29.33;39.10;99082.53;5089861;28;20044;-61
2022/08/25 00:23:48;;;;;;;1.40;0.95;;;;;;;29.34;39.42;99086.16;5089875;28;20040;-62
2022/08/25 00:26:15;;;;;;;2.03;1.00;;;;;;;29.32;39.15;99080.97;5089683;28;20042;-51
2022/08/25 00:28:42;;;;;;;1.40;0.98;;;;;;;29.31;39.12;99073.75;5089938;28;20415;-62
2022/08/25 00:31:12;;;;;;;2.00;1.00;;;;;;;29.33;39.42;99070.50;5089786;28;20067;-62
2022/08/25 00:33:38;;;;;;;1.63;1.00;;;;;;;29.34;39.00;99077.69;5089527;28;20066;-63
2022/08/25 00:36:03;;;;;;;1.77;1.13;;;;;;;29.32;39.27;99075.34;5089548;28;20044;-62
2022/08/25 00:38:30;;;;;;;3.38;1.08;;;;;;;29.34;39.58;99069.25;5089487;28;20612;-63
2022/08/25 00:41:04;;;;;;;1.45;0.95;;;;;;;29.32;39.19;99066.88;5089577;28;20105;-53
2022/08/25 00:43:56;;;;;;;1.95;1.10;;;;;;;29.31;39.16;99061.69;5089670;28;20036;-52
2022/08/25 00:46:35;;;;;;;1.13;0.80;;;;;;;29.33;39.49;99064.84;5082341;28;20048;-62
2022/08/25 00:49:08;;;;;;;1.17;0.80;;;;;;;29.33;39.38;99065.66;5089364;28;20043;-52
2022/08/25 00:51:51;;;;;;;1.85;1.10;;;;;;;29.33;39.49;99070.50;5089493;28;20407;-50
2022/08/25 00:54:26;;;;;;;1.80;1.05;;;;;;;29.32;39.26;99072.50;5089490;28;20089;-51
2022/08/25 00:56:53;;;;;;;1.50;0.80;;;;;;;29.33;39.11;99067.66;5088472;28;20479;-53
2022/08/25 00:59:21;;;;;;;1.67;1.00;;;;;;;29.31;39.05;99068.13;5089501;28;20684;-62
2022/08/25 01:01:48;;;;;;;1.40;0.90;;;;;;;29.28;39.38;99062.56;5089343;28;20055;-63
2022/08/25 01:04:13;;;;;;;1.75;1.00;;;;;;;29.31;39.04;99058.88;5088831;28;20044;-63
2022/08/25 01:06:43;;;;;;;1.60;0.88;;;;;;;29.32;39.29;99060.44;5089432;28;20143;-50
2022/08/25 01:09:09;;;;;;;1.98;1.00;;;;;;;29.29;39.12;99052.88;5089119;28;20127;-52
2022/08/25 01:11:35;;;;;;;2.22;1.20;;;;;;;29.31;39.47;99062.47;5088958;28;20126;-53
2022/08/25 01:14:05;;;;;;;2.00;1.15;;;;;;;29.31;39.29;99065.31;5088873;28;20131;-52
2022/08/25 01:16:37;;;;;;;2.00;1.10;;;;;;;29.29;39.21;99064.97;5088934;28;20135;-50
2022/08/25 01:19:04;;;;;;;1.60;1.00;;;;;;;29.32;39.41;99074.53;5089023;28;20056;-53
2022/08/25 01:21:36;;;;;;;1.60;0.90;;;;;;;29.31;39.57;99078.59;5088866;28;20040;-63
2022/08/25 01:24:01;;;;;;;1.67;1.08;;;;;;;29.30;39.48;99083.44;5088836;28;20032;-51
2022/08/25 01:26:30;;;;;;;2.20;1.00;;;;;;;29.30;39.48;99082.66;5088564;28;20507;-52
2022/08/25 01:31:41;;;;;;;2.30;1.30;;;;;;;29.31;39.31;99070.16;5089175;28;20124;-62
2022/08/25 01:34:08;;;;;;;1.88;1.00;;;;;;;29.31;39.50;99070.94;5088835;28;20093;-63
2022/08/25 01:36:35;;;;;;;1.73;1.00;;;;;;;29.31;39.34;99073.75;5088462;28;20423;-63
2022/08/25 01:39:01;;;;;;;1.40;0.95;;;;;;;29.30;39.26;99077.00;5088640;28;20052;-62
2022/08/25 01:41:32;;;;;;;1.65;0.95;;;;;;;29.30;39.49;99074.19;5098772;28;20050;-63
2022/08/25 01:43:58;;;;;;;1.40;0.90;;;;;;;29.32;39.21;99080.19;5103875;28;20032;-63
2022/08/25 01:46:24;;;;;;;1.65;1.05;;;;;;;29.30;39.35;99079.84;5090650;28;20066;-62
2022/08/25 01:48:49;;;;;;;2.00;1.08;;;;;;;29.30;39.20;99093.91;5092099;28;20076;-63
2022/08/25 01:51:18;;;;;;;1.80;1.00;;;;;;;29.30;39.35;99091.09;5091873;28;20130;-50
2022/08/25 01:53:44;;;;;;;1.65;1.00;;;;;;;29.32;39.44;99089.41;5092281;28;20051;-63
2022/08/25 01:56:12;;;;;;;1.63;1.00;;;;;;;29.30;39.36;99094.72;5091865;28;20530;-53
2022/08/25 01:58:43;;;;;;;1.40;0.90;;;;;;;29.30;39.56;99093.91;5091966;28;20470;-51
2022/08/25 02:01:14;;;;;;;1.42;0.90;;;;;;;29.30;39.48;99083.44;5092242;28;20624;-53
2022/08/25 02:03:41;;;;;;;1.13;0.82;;;;;;;29.29;39.42;99078.22;5092053;28;20044;-63
2022/08/25 02:06:09;;;;;;;1.45;0.90;;;;;;;29.29;39.32;99076.22;5091966;28;20064;-52
2022/08/25 02:08:35;;;;;;;1.63;1.08;;;;;;;29.27;39.49;99077.88;5091890;28;20055;-62
2022/08/25 02:11:01;;;;;;;1.42;0.90;;;;;;;29.31;39.46;99085.03;5091728;28;20044;-62
2022/08/25 02:13:26;;;;;;;2.03;0.95;;;;;;;29.29;39.46;99081.88;5091795;28;20040;-52
2022/08/25 02:15:55;;;;;;;1.85;1.00;;;;;;;29.31;39.27;99093.47;5091964;28;20082;-50
2022/08/25 02:18:21;;;;;;;1.80;1.00;;;;;;;29.29;39.38;99087.50;5091859;28;20072;-53
2022/08/25 02:20:47;;;;;;;1.73;0.90;;;;;;;29.28;39.23;99077.44;5091548;28;20440;-53
2022/08/25 02:23:12;;;;;;;1.60;0.90;;;;;;;29.29;39.48;99086.69;5091471;28;20093;-50
2022/08/25 02:25:39;;;;;;;1.50;0.85;;;;;;;29.25;39.28;99091.63;5091663;28;20407;-52
2022/08/25 02:28:07;;;;;;;1.48;0.95;;;;;;;29.29;39.35;99090.31;5091642;28;20438;-63
2022/08/25 02:30:33;;;;;;;1.67;1.10;;;;;;;29.30;39.56;99079.84;5091494;28;20504;-50
2022/08/25 02:32:59;;;;;;;1.30;0.90;;;;;;;29.28;39.42;99085.09;5091590;28;20570;-63
2022/08/25 02:35:24;;;;;;;2.13;1.00;;;;;;;29.30;39.37;99082.66;5091185;28;20131;-62
2022/08/25 02:37:51;;;;;;;1.92;1.10;;;;;;;29.30;39.56;99085.47;5091459;28;20101;-63
2022/08/25 02:40:17;;;;;;;1.15;0.80;;;;;;;29.27;39.19;99084.31;5091263;28;20703;-50
2022/08/25 02:42:43;;;;;;;1.17;0.80;;;;;;;29.30;39.28;99082.66;5091360;28;20044;-53
2022/08/25 02:45:09;;;;;;;1.52;0.90;;;;;;;29.30;39.20;99077.00;5091146;28;20070;-63
2022/08/25 02:47:36;;;;;;;1.30;0.90;;;;;;;29.30;39.28;99077.00;5091203;28;20432;-63
2022/08/25 02:50:06;;;;;;;2.05;1.08;;;;;;;29.30;39.48;99079.84;5091152;28;20055;-63
2022/08/25 02:52:31;;;;;;;1.65;1.00;;;;;;;29.30;39.44;99079.84;5091145;28;20416;-51
2022/08/25 02:54:57;;;;;;;2.22;1.00;;;;;;;29.28;39.36;99068.97;5090977;28;20037;-63
2022/08/25 02:57:22;;;;;;;1.40;0.95;;;;;;;29.30;39.56;99060.13;5089971;28;20051;-62
2022/08/25 02:59:48;;;;;;;1.45;0.80;;;;;;;29.27;39.10;99056.13;5091091;28;20453;-63
2022/08/25 03:02:15;;;;;;;1.83;0.90;;;;;;;29.25;39.29;99058.63;5091257;28;20450;-63
2022/08/25 03:04:41;;;;;;;1.33;0.82;;;;;;;29.29;39.38;99070.59;5091151;28;20047;-63
2022/08/25 03:07:06;;;;;;;2.25;1.20;;;;;;;29.28;39.26;99063.34;5091110;28;20059;-52
2022/08/25 03:09:31;;;;;;;3.30;1.17;;;;;;;29.30;39.27;99065.75;5090980;28;20119;-63
2022/08/25 03:11:57;;;;;;;1.10;0.80;;;;;;;29.28;39.30;99065.38;5090829;28;20404;-63
2022/08/25 03:14:22;;;;;;;1.42;0.98;;;;;;;29.30;39.42;99068.56;5090831;28;20051;-62
2022/08/25 03:16:48;;;;;;;1.60;0.93;;;;;;;29.29;39.23;99075.41;5090809;28;20036;-50
2022/08/25 03:19:14;;;;;;;1.80;1.10;;;;;;;29.28;39.60;99068.97;5090639;28;20052;-50
2022/08/25 03:21:39;;;;;;;2.17;1.10;;;;;;;29.29;39.29;99069.78;5090491;28;20583;-54
2022/08/25 03:24:06;;;;;;;1.48;1.00;;;;;;;29.28;39.28;99073.81;5090522;28;20479;-49
2022/08/25 03:29:16;;;;;;;2.13;1.00;;;;;;;29.28;39.30;99068.19;5090931;28;20047;-62
2022/08/25 03:31:43;;;;;;;2.15;0.95;;;;;;;29.27;39.30;99063.78;5090758;28;20048;-52
2022/08/25 03:34:09;;;;;;;1.80;1.10;;;;;;;29.28;39.15;99074.63;5090540;28;20048;-63
2022/08/25 03:36:35;;;;;;;1.38;0.90;;;;;;;29.28;39.43;99068.19;5090486;28;20044;-52
2022/08/25 03:39:01;;;;;;;1.50;1.00;;;;;;;29.28;39.38;99065.38;5090475;28;20526;-54
2022/08/25 03:41:31;;;;;;;1.17;0.80;;;;;;;29.26;39.31;99056.59;5090639;28;20174;-52
2022/08/25 03:43:58;;;;;;;1.27;0.98;;;;;;;29.27;39.51;99064.59;5090387;28;20056;-62
2022/08/25 03:46:27;;;;;;;2.08;1.10;;;;;;;29.28;39.57;99065.38;5090304;28;20055;-63
2022/08/25 03:48:54;;;;;;;1.30;0.88;;;;;;;29.27;39.56;99067.41;5090416;28;20054;-52
2022/08/25 03:51:32;;;;;;;1.48;0.90;;;;;;;29.26;39.44;99074.28;5090207;28;20170;-50
2022/08/25 03:53:58;;;;;;;1.20;0.85;;;;;;;29.28;39.61;99073.81;5090191;28;20052;-62
2022/08/25 03:56:25;;;;;;;1.52;1.00;;;;;;;29.27;39.54;99067.41;5090199;28;20036;-62
2022/08/25 03:58:51;;;;;;;1.55;0.90;;;;;;;29.26;39.49;99067.84;5090291;28;20051;-63
2022/08/25 04:01:17;;;;;;;1.45;0.90;;;;;;;29.26;39.49;99068.66;5090075;28;20040;-63
2022/08/25 04:03:42;;;;;;;1.67;1.00;;;;;;;29.27;39.29;99066.63;5090067;28;20043;-63
2022/08/25 04:06:08;;;;;;;1.23;0.80;;;;;;;29.25;39.60;99080.34;5089811;28;20047;-50
2022/08/25 04:08:34;;;;;;;1.70;1.00;;;;;;;29.28;39.36;99076.66;5089397;28;20071;-62
2022/08/25 04:11:09;;;;;;;1.83;1.10;;;;;;;29.25;39.29;99069.88;5089990;28;20112;-51
2022/08/25 04:13:35;;;;;;;1.15;0.70;;;;;;;29.26;39.41;99071.47;5089995;28;20044;-63
2022/08/25 04:16:00;;;;;;;1.35;0.85;;;;;;;29.25;39.38;99069.09;5090031;28;20044;-52
2022/08/25 04:18:30;;;;;;;1.38;0.85;;;;;;;29.26;39.32;99079.13;5089828;28;20036;-62
2022/08/25 04:21:04;;;;;;;1.40;1.00;;;;;;;29.26;39.28;99073.47;5089829;28;20510;-63
2022/08/25 04:23:29;;;;;;;1.52;0.90;;;;;;;29.25;39.47;99066.28;5089881;28;20040;-50
2022/08/25 04:25:55;;;;;;;1.13;0.85;;;;;;;29.27;39.53;99075.06;5089804;28;20051;-63
2022/08/25 04:28:20;;;;;;;1.55;1.00;;;;;;;29.27;39.27;99072.25;5089954;28;20111;-52
2022/08/25 04:30:45;;;;;;;1.67;0.93;;;;;;;29.26;39.37;99079.13;5089879;28;20054;-62
2022/08/25 04:33:12;;;;;;;1.25;0.90;;;;;;;29.27;39.34;99072.25;5109698;28;20088;-63
2022/08/25 04:35:38;;;;;;;1.45;0.98;;;;;;;29.27;39.67;99069.44;5109645;28;20401;-51
2022/08/25 04:38:03;;;;;;;1.67;0.90;;;;;;;29.25;39.27;99063.44;5109807;28;20054;-53
2022/08/25 04:40:28;;;;;;;1.60;0.93;;;;;;;29.25;39.56;99071.91;5109716;28;20509;-52
2022/08/25 04:42:54;;;;;;;1.15;0.82;;;;;;;29.25;39.32;99069.09;5109903;28;20089;-62
2022/08/25 04:45:20;;;;;;;1.45;1.00;;;;;;;29.27;39.39;99083.50;5091572;28;20086;-52
2022/08/25 04:47:45;;;;;;;1.50;0.90;;;;;;;29.26;39.66;99082.72;5089197;28;20078;-62
2022/08/25 04:50:10;;;;;;;1.60;0.93;;;;;;;29.27;39.58;99084.31;5089532;28;20420;-50
2022/08/25 04:52:36;;;;;;;1.35;0.90;;;;;;;29.28;39.66;99079.47;5089327;28;20127;-63
2022/08/25 04:55:02;;;;;;;1.60;0.85;;;;;;;29.29;39.48;99086.69;5089219;28;20040;-51
2022/08/25 04:57:29;;;;;;;0.90;0.70;;;;;;;29.29;39.63;99092.31;5089305;28;20080;-62
2022/08/25 04:59:54;;;;;;;1.27;0.75;;;;;;;29.28;39.41;99087.91;5089190;28;20044;-52
2022/08/25 05:02:20;;;;;;;1.40;0.90;;;;;;;29.28;39.28;99073.81;5089202;28;20056;-49
2022/08/25 05:04:46;;;;;;;1.38;0.90;;;;;;;29.31;39.41;99079.38;5089017;28;20416;-50
2022/08/25 05:07:12;;;;;;;1.75;1.15;;;;;;;29.33;39.33;99093.03;5088688;28;20051;-62
2022/08/25 05:09:37;;;;;;;1.52;0.95;;;;;;;29.33;39.27;99093.03;5089097;28;20056;-62
2022/08/25 05:12:03;;;;;;;1.45;1.00;;;;;;;29.33;39.54;99084.56;5088700;28;20044;-52
2022/08/25 05:14:30;;;;;;;1.17;0.90;;;;;;;29.33;39.46;99079.72;5088805;28;20044;-55
2022/08/25 05:16:56;;;;;;;1.95;0.98;;;;;;;29.34;39.48;99081.31;5088864;28;20047;-64
2022/08/25 05:19:22;;;;;;;10.18;1.42;;;;;;;29.35;39.60;99082.09;5089092;28;20032;-50
2022/08/25 05:21:48;;;;;;;7.78;1.42;;;;;;;29.36;39.76;99086.50;5091397;28;20745;-63
2022/08/25 05:24:14;;;;;;;8.35;1.38;;;;;;;29.37;39.85;99088.09;5092313;28;20044;-63
2022/08/25 05:26:40;;;;;;;11.80;1.48;;;;;;;29.38;39.64;99094.53;5092440;28;20499;-62
2022/08/25 05:29:06;;;;;;;8.77;1.05;;;;;;;29.38;39.86;99091.72;5092563;28;20040;-63
2022/08/25 05:31:32;;;;;;;9.23;1.20;;;;;;;29.37;39.60;99093.75;5092387;28;20044;-63
2022/08/25 05:33:57;;;;;;;7.07;1.30;;;;;;;29.39;39.43;99091.25;5092164;28;20048;-53
2022/08/25 05:36:25;;;;;;;9.32;1.10;;;;;;;29.38;39.91;99097.34;5092402;28;20044;-63
2022/08/25 05:38:51;;;;;;;13.70;1.33;;;;;;;29.39;39.76;99096.09;5095078;28;20048;-63
2022/08/25 05:41:20;;;;;;;7.43;1.33;;;;;;;29.40;39.91;99098.47;5111893;28;20401;-50
2022/08/25 05:43:47;;;;;;;8.02;1.25;;;;;;;29.41;39.61;99093.63;5092252;28;20055;-63
2022/08/25 05:46:15;;;;;;;12.35;1.33;;;;;;;29.41;39.51;99099.28;5092241;28;20047;-51
2022/08/25 05:48:41;;;;;;;5.57;1.27;;;;;;;29.42;39.63;99098.03;5092364;28;20051;-63
2022/08/25 05:51:09;;;;;;;14.18;1.20;;;;;;;29.41;39.88;99100.06;5092275;28;20048;-49
2022/08/25 05:53:35;;;;;;;12.45;1.58;;;;;;;29.42;39.48;99096.00;5092013;28;20185;-52
2022/08/25 05:56:01;;;;;;;10.40;1.55;;;;;;;29.41;39.53;99088.78;5092379;28;20083;-52
2022/08/25 05:58:28;;;;;;;7.88;0.90;;;;;;;29.43;39.63;99103.22;5108942;28;20097;-50
2022/08/25 06:00:54;;;;;;;5.22;1.30;;;;;;;29.42;39.80;99096.00;5112351;28;20101;-63
2022/08/25 06:03:19;;;;;;;5.00;1.10;;;;;;;29.28;39.31;99099.19;5112454;28;20134;-62
2022/08/25 06:05:45;;;;;;;5.70;1.10;;;;;;;29.13;39.44;99093.09;5099800;28;20123;-49
2022/08/25 06:08:11;;;;;;;3.65;1.20;;;;;;;28.98;40.45;99083.44;5091988;28;20040;-50
2022/08/25 06:10:37;;;;;;;3.25;1.50;;;;;;;28.80;41.11;99092.28;5091713;28;20124;-49
2022/08/25 06:13:02;;;;;;;5.43;1.10;;;;;;;28.66;41.25;99092.59;5091826;28;20185;-49
2022/08/25 06:15:28;;;;;;;5.78;1.20;;;;;;;28.64;41.18;99103.47;5092098;28;20464;-49
2022/08/25 06:17:57;;;;;;;4.88;1.23;;;;;;;28.64;41.38;99098.66;5091845;28;20483;-49
2022/08/25 06:20:25;;;;;;;5.15;1.00;;;;;;;28.69;41.01;99105.78;5091774;28;20052;-63
2022/08/25 06:22:51;;;;;;;6.63;1.10;;;;;;;28.67;41.12;99108.25;5091521;28;20040;-63
2022/08/25 06:25:20;;;;;;;3.08;1.15;;;;;;;28.65;41.21;99111.50;5091548;28;20113;-49
2022/08/25 06:27:45;;;;;;;5.22;1.20;;;;;;;28.69;40.55;99117.06;5091634;28;20047;-48
2022/08/25 06:30:14;;;;;;;3.42;1.10;;;;;;;28.64;41.33;99107.09;5091535;28;20036;-51
2022/08/25 06:32:42;;;;;;;2.75;1.10;;;;;;;28.54;41.14;99112.97;5091015;28;20048;-63
2022/08/25 06:35:15;;;;;;;3.33;1.10;;;;;;;28.46;41.62;99117.97;5089309;28;20052;-50
2022/08/25 06:37:41;;;;;;;2.40;0.93;;;;;;;28.49;41.17;99114.25;5092321;28;20085;-49
2022/08/25 06:40:09;;;;;;;3.38;1.00;;;;;;;28.52;41.29;99111.38;5094673;28;20496;-49
2022/08/25 06:42:36;;;;;;;4.15;1.10;;;;;;;28.49;41.08;99114.25;5091447;28;20423;-63
2022/08/25 06:45:02;;;;;;;6.72;1.00;;;;;;;28.49;41.15;99112.25;5091380;28;20048;-50
2022/08/25 06:47:27;;;;;;;2.83;1.00;;;;;;;28.52;41.12;99114.19;5090758;28;20044;-52
2022/08/25 06:49:53;;;;;;;3.60;1.00;;;;;;;28.55;40.94;99115.34;5090933;28;20538;-63
2022/08/25 06:52:18;;;;;;;1.38;0.75;;;;;;;28.56;40.89;99111.28;5091366;28;20606;-63
2022/08/25 06:54:44;;;;;;;2.67;1.10;;;;;;;28.57;40.57;99104.44;5091287;28;20165;-63
2022/08/25 06:57:10;;;;;;;2.17;1.00;;;;;;;28.57;40.84;99103.63;5091215;28;20053;-63
2022/08/25 06:59:36;;;;;;;1.90;0.90;;;;;;;28.57;40.84;99103.63;5091095;28;20416;-63
2022/08/25 07:02:02;;;;;;;2.55;1.00;;;;;;;28.60;40.68;99102.78;5091128;28;20055;-49
2022/08/25 07:04:28;;;;;;;2.42;0.90;;;;;;;28.61;40.42;99104.38;5091070;28;20068;-63
2022/08/25 07:06:53;;;;;;;5.53;1.42;;;;;;;28.61;39.73;99098.75;5091057;28;20044;-63
2022/08/25 07:09:19;;;;;;;5.05;1.70;;;;;;;28.41;39.97;99091.13;5079384;28;20075;-50
2022/08/25 07:11:45;;;;;;;2.72;1.48;;;;;;;28.23;42.15;99097.09;5094623;28;20678;-50
2022/08/25 07:14:12;;;;;;;6.90;2.00;;;;;;;28.10;42.71;99081.31;5092348;28;20052;-56
2022/08/25 07:16:38;;;;;;;4.47;1.98;;;;;;;28.02;41.37;99085.50;5094185;28;20047;-52
2022/08/25 07:19:04;;;;;;;6.38;2.10;;;;;;;28.01;41.62;99083.91;5096109;28;20040;-62
2022/08/25 07:21:32;;;;;;;9.32;4.40;;;;;;;27.95;42.49;99078.78;5100228;28;20511;-62
2022/08/25 07:23:59;;;;;;;11.65;6.50;;;;;;;27.91;42.16;99072.44;5098080;28;20134;-60
2022/08/25 07:26:27;;;;;;;16.00;5.90;;;;;;;27.88;41.61;99073.31;5091352;28;20549;-48
2022/08/25 07:28:54;;;;;;;13.82;5.70;;;;;;;27.88;42.54;99076.13;5112867;28;20457;-64
2022/08/25 07:31:19;;;;;;;7.47;4.57;;;;;;;27.82;42.60;99074.25;5103493;28;20076;-62
2022/08/25 07:36:30;;;;;;;6.47;3.92;;;;;;;27.86;42.67;99066.50;5088934;28;20069;-50
2022/08/25 07:38:57;;;;;;;6.40;3.70;;;;;;;27.78;42.98;99065.84;5090367;28;20076;-48
2022/08/25 07:41:23;;;;;;;6.80;3.47;;;;;;;27.80;42.28;99069.06;5088220;28;20039;-63
2022/08/25 07:43:48;;;;;;;8.45;3.65;;;;;;;27.83;42.99;99064.56;5094567;28;20040;-62
2022/08/25 07:46:14;;;;;;;8.63;3.80;;;;;;;27.78;43.10;99060.25;5089206;28;20073;-47
2022/08/25 07:48:39;;;;;;;8.65;3.40;;;;;;;27.77;43.13;99058.66;5088873;28;20735;-53
2022/08/25 07:51:11;;;;;;;8.23;3.63;;;;;;;27.74;42.40;99070.78;5089389;28;20040;-63
2022/08/25 07:53:36;;;;;;;8.07;3.35;;;;;;;27.74;43.64;99069.97;5088769;28;20423;-53
2022/08/25 07:56:07;;;;;;;6.55;3.08;;;;;;;27.74;43.41;99070.78;5091676;28;20641;-63
2022/08/25 07:58:33;;;;;;;10.13;3.20;;;;;;;27.74;42.37;99065.16;5095806;28;20569;-67
2022/08/25 08:00:59;;;;;;;9.90;3.30;;;;;;;27.75;43.19;99069.53;5091456;28;20043;-52
2022/08/25 08:03:25;;;;;;;8.23;2.90;;;;;;;27.72;43.71;99070.41;5089327;28;20050;-63
2022/08/25 08:05:51;;;;;;;6.95;3.10;;;;;;;27.70;43.10;99070.03;5090560;28;20047;-56
2022/08/25 08:08:16;;;;;;;11.55;3.30;;;;;;;27.68;42.22;99069.69;5097917;28;20052;-63
2022/08/25 08:10:41;;;;;;;6.50;2.70;;;;;;;27.66;42.72;99063.69;5087700;28;20040;-62
2022/08/25 08:13:08;;;;;;;9.73;2.33;;;;;;;27.67;41.73;99076.50;5091467;28;20055;-56
2022/08/25 08:15:35;;;;;;;4.63;2.30;;;;;;;27.70;42.02;99072.84;5100182;28;20055;-54
2022/08/25 08:18:01;;;;;;;4.55;2.10;;;;;;;27.71;42.67;99074.44;5099227;28;20051;-57
2022/08/25 08:20:27;;;;;;;9.20;2.40;;;;;;;27.68;42.62;99066.88;5094533;28;20078;-50
2022/08/25 08:22:53;;;;;;;6.60;2.45;;;;;;;27.69;41.72;99066.44;5097220;28;20130;-63
2022/08/25 08:25:19;;;;;;;5.43;3.05;;;;;;;27.75;42.57;99063.13;5097346;28;20043;-54
2022/08/25 08:27:45;;;;;;;5.60;2.55;;;;;;;27.70;42.74;99062.41;5094401;28;20040;-55
2022/08/25 08:30:11;;;;;;;4.18;2.60;;;;;;;27.74;41.83;99065.16;5079019;28;20188;-54
2022/08/25 08:32:36;;;;;;;6.68;3.90;;;;;;;27.69;41.95;99060.81;5100048;28;20611;-53
2022/08/25 08:35:02;;;;;;;8.93;3.92;;;;;;;27.69;42.39;99057.22;5097481;28;20052;-53
2022/08/25 08:37:28;;;;;;;7.13;2.90;;;;;;;27.71;42.41;99051.94;5095172;28;20139;-55
2022/08/25 08:39:53;;;;;;;5.60;3.78;;;;;;;27.70;41.23;99044.75;5098419;28;20051;-55
2022/08/25 08:42:51;;;;;;;6.20;3.63;;;;;;;27.74;42.07;99045.47;5098072;28;20082;-55
2022/08/25 08:45:31;;;;;;;5.18;3.20;;;;;;;27.78;42.14;99043.38;5097500;28;20059;-54
2022/08/25 08:48:09;;;;;;;7.68;2.92;;;;;;;27.81;41.31;99041.75;5100036;28;20043;-47
2022/08/25 08:50:55;;;;;;;5.13;2.80;;;;;;;27.82;42.44;99044.09;5105888;28;20087;-63
2022/08/25 08:53:42;;;;;;;4.45;2.85;;;;;;;27.85;42.38;99043.22;5099045;28;20102;-60
2022/08/25 08:56:10;;;;;;;5.13;2.63;;;;;;;27.90;41.72;99042.75;5105473;28;20039;-63
2022/08/25 08:58:46;;;;;;;4.05;2.55;;;;;;;27.89;42.63;99035.53;5100692;28;20047;-65
2022/08/25 09:01:16;;;;;;;4.40;2.47;;;;;;;27.89;42.45;99026.31;5102370;28;20046;-54
2022/08/25 09:03:58;;;;;;;4.57;2.65;;;;;;;27.89;42.10;99031.94;5099069;28;20047;-51
2022/08/25 09:06:40;;;;;;;4.90;2.33;;;;;;;27.85;42.35;99019.97;5099429;28;20684;-62
2022/08/25 09:09:10;;;;;;;7.20;2.50;;;;;;;27.87;42.39;99023.94;5090885;28;20051;-53
2022/08/25 09:12:03;;;;;;;5.38;2.63;;;;;;;27.93;41.76;99018.59;5096756;28;20056;-63
2022/08/25 09:14:47;;;;;;;6.28;2.60;;;;;;;27.90;42.76;99019.47;5091482;28;20515;-49
2022/08/25 09:17:47;;;;;;;7.18;2.75;;;;;;;27.94;42.61;99018.16;5091470;28;20052;-61
2022/08/25 09:20:18;;;;;;;7.68;2.83;;;;;;;27.97;41.73;99017.28;5093204;28;20135;-55
2022/08/25 09:22:50;;;;;;;12.10;2.80;;;;;;;27.99;42.67;99014.03;5093655;28;20130;-70
2022/08/25 09:25:29;;;;;;;4.38;2.45;;;;;;;28.00;42.95;99020.44;5100177;28;20491;-65
2022/08/25 09:28:24;;;;;;;6.45;2.53;;;;;;;27.96;41.69;99012.91;5100078;28;20029;-53
2022/08/25 09:30:58;;;;;;;4.38;2.28;;;;;;;27.97;42.25;99017.28;5095272;28;20051;-54
2022/08/25 09:33:26;;;;;;;6.03;2.40;;;;;;;27.96;42.25;99012.09;5101193;28;20055;-54
2022/08/25 09:35:54;;;;;;;4.68;2.50;;;;;;;27.94;41.85;99004.13;5099471;28;20070;-61
2022/08/25 09:38:20;;;;;;;4.63;2.40;;;;;;;27.95;41.62;98997.25;5095635;28;20055;-54
2022/08/25 09:40:55;;;;;;;4.32;2.28;;;;;;;27.96;42.29;98993.22;5098243;28;20171;-62
2022/08/25 09:43:22;;;;;;;5.25;2.28;;;;;;;27.97;42.31;98982.75;5094158;28;20112;-62
2022/08/25 09:45:57;;;;;;;7.95;2.63;;;;;;;27.95;41.03;98980.41;5095431;28;20074;-61
2022/08/25 09:48:36;;;;;;;5.20;2.10;;;;;;;27.98;42.24;98976.69;5101803;28;20070;-63
2022/08/25 09:51:30;;;;;;;4.82;2.20;;;;;;;27.93;42.36;98982.84;5098383;28;20071;-54
2022/08/25 09:54:23;;;;;;;5.43;2.17;;;;;;;27.92;41.18;98972.03;5097212;28;20044;-63
2022/08/25 09:56:56;;;;;;;5.03;2.38;;;;;;;27.96;41.77;98976.34;5098316;28;20059;-54
2022/08/25 09:59:27;;;;;;;6.65;1.92;;;;;;;27.91;41.89;98979.66;5089475;28;20054;-54
2022/08/25 10:01:59;;;;;;;3.60;1.90;;;;;;;27.88;40.98;98966.50;5095149;28;20044;-54
2022/08/25 10:04:35;;;;;;;3.77;2.03;;;;;;;27.87;41.47;98964.91;5093587;28;20289;-49
2022/08/25 10:07:17;;;;;;;4.68;2.10;;;;;;;27.88;41.47;98966.50;5078623;28;21467;-50
2022/08/25 10:09:52;;;;;;;3.67;1.90;;;;;;;27.90;41.43;98961.22;5082022;28;20469;-51
2022/08/25 10:12:30;;;;;;;6.07;1.92;;;;;;;27.95;40.70;98955.09;5110472;28;20045;-49
2022/08/25 10:14:56;;;;;;;4.75;1.90;;;;;;;27.97;41.36;98949.81;5099428;28;20118;-62
2022/08/25 10:17:31;;;;;;;5.13;1.77;;;;;;;27.90;41.44;98943.56;5102484;28;20185;-51
2022/08/25 10:20:08;;;;;;;3.67;1.90;;;;;;;27.89;40.67;98936.38;5107595;28;20492;-64
2022/08/25 10:22:35;;;;;;;3.53;1.77;;;;;;;27.86;40.68;98932.41;5102027;28;20407;-59
2022/08/25 10:25:02;;;;;;;3.15;1.80;;;;;;;27.87;41.50;98934.00;5099888;28;20051;-54
2022/08/25 10:27:30;;;;;;;3.30;1.92;;;;;;;27.85;41.38;98930.00;5100228;28;20044;-60
2022/08/25 10:30:02;;;;;;;4.72;1.80;;;;;;;27.87;40.81;98922.75;5094006;28;20042;-61
2022/08/25 10:33:03;;;;;;;3.93;2.03;;;;;;;27.89;41.37;98913.88;5104241;28;20050;-52
2022/08/25 10:35:39;;;;;;;3.45;1.70;;;;;;;27.91;41.35;98911.41;5104853;28;20352;-53
2022/08/25 10:38:30;;;;;;;3.63;1.58;;;;;;;27.87;40.29;98905.09;5091979;28;20127;-61
2022/08/25 10:40:59;;;;;;;6.00;1.70;;;;;;;27.89;41.23;98906.22;5095793;28;20385;-54
2022/08/25 10:43:49;;;;;;;3.88;1.95;;;;;;;27.84;41.17;98906.75;5101866;28;20032;-62
2022/08/25 10:46:29;;;;;;;4.80;1.60;;;;;;;27.80;41.27;98892.00;5101287;28;20036;-63
2022/08/25 10:49:22;;;;;;;3.08;1.60;;;;;;;27.82;40.48;98892.34;5104782;28;20055;-62
2022/08/25 10:52:04;;;;;;;3.05;1.65;;;;;;;27.82;41.01;98886.72;5097566;28;20449;-53
2022/08/25 10:54:43;;;;;;;3.35;1.90;;;;;;;27.79;41.24;98890.41;5095683;28;20032;-62
2022/08/25 10:57:28;;;;;;;3.28;1.60;;;;;;;27.80;41.02;98894.00;5097241;28;20376;-54
2022/08/25 11:00:16;;;;;;;3.33;1.52;;;;;;;27.82;41.16;98880.31;5100954;28;20432;-55
2022/08/25 11:03:00;;;;;;;5.88;2.05;;;;;;;27.80;41.14;98877.16;5100946;28;20051;-62
2022/08/25 11:05:32;;;;;;;3.10;1.73;;;;;;;27.79;41.18;98881.16;5104394;28;20543;-54
2022/08/25 11:08:23;;;;;;;3.88;1.88;;;;;;;27.79;40.25;98870.75;5104238;28;20375;-53
2022/08/25 11:11:11;;;;;;;4.80;1.52;;;;;;;27.80;41.02;98863.09;5090824;28;20108;-48
2022/08/25 11:13:46;;;;;;;3.00;1.42;;;;;;;27.80;41.01;98858.25;5097028;28;20055;-53
2022/08/25 11:16:40;;;;;;;4.30;1.75;;;;;;;27.83;40.09;98853.78;5095562;28;20048;-54
2022/08/25 11:19:25;;;;;;;3.15;1.60;;;;;;;27.82;40.85;98847.38;5078190;28;20077;-54
2022/08/25 11:22:01;;;;;;;3.30;1.50;;;;;;;27.84;40.93;98841.31;5091420;28;20074;-53
2022/08/25 11:24:38;;;;;;;4.43;1.50;;;;;;;27.83;40.43;98837.72;5086237;28;20033;-62
2022/08/25 11:27:08;;;;;;;3.72;1.70;;;;;;;27.85;40.69;98838.06;5072841;28;20040;-52
2022/08/25 11:29:37;;;;;;;3.78;1.35;;;;;;;27.81;40.97;98823.31;5088107;28;20153;-49
2022/08/25 11:32:03;;;;;;;3.10;1.63;;;;;;;27.81;40.95;98828.94;5092258;28;20051;-61
2022/08/25 11:34:35;;;;;;;2.47;1.45;;;;;;;27.81;40.28;98830.94;5095538;28;20048;-61
2022/08/25 11:37:18;;;;;;;3.00;1.55;;;;;;;27.82;40.69;98818.47;5095112;28;20396;-51
2022/08/25 11:40:17;;;;;;;3.63;1.90;;;;;;;27.85;41.01;98812.75;5099275;28;20036;-61
2022/08/25 11:43:14;;;;;;;3.25;1.40;;;;;;;27.84;41.27;98804.75;5102227;28;20096;-52
2022/08/25 11:46:03;;;;;;;4.28;1.75;;;;;;;27.86;40.28;98808.75;5093189;28;20051;-54
2022/08/25 11:48:58;;;;;;;3.78;1.67;;;;;;;27.90;41.29;98805.84;5096557;28;20080;-52
2022/08/25 11:51:39;;;;;;;3.28;1.60;;;;;;;27.93;41.48;98800.13;5077484;28;20139;-62
2022/08/25 11:54:10;;;;;;;5.72;1.80;;;;;;;27.92;41.00;98801.34;5094741;28;20051;-52
2022/08/25 11:56:40;;;;;;;2.90;1.30;;;;;;;27.95;41.63;98802.50;5098878;28;20044;-61